Terminal Aerodrome Forecast
Issued by NWS

Home | Current Version | Previous Version | Text Only | Print | Product List | Glossary On
Versions: 1 2 3 4 5 6 7 8 9 10 11 12 13 14 15 16 17 18 19 20 21 22 23
745
FTUS43 KDTX 090527
TAFMBS
TAF
KMBS 090527Z 0906/1006 30008KT 1SM -SN BR OVC006
     FM090800 31008KT 3SM -SHSN BR BKN015 OVC023
     FM091400 30014G20KT 3SM -SHSN BR OVC015
     FM092000 29012KT 1 1/2SM -SHSN BR OVC012=

USA.gov is the U.S. government's official web portal to all federal, state and local government web resources and services.